createdAt,value
2023-05-09T00:00:15.388Z,5.61
2023-05-09T00:01:15.411Z,5.96
2023-05-09T00:02:15.449Z,5.72
2023-05-09T00:03:15.473Z,5.25
2023-05-09T00:04:15.476Z,6.07
2023-05-09T00:05:15.824Z,5.52
2023-05-09T00:06:15.630Z,5.59
2023-05-09T00:07:15.657Z,5.58
2023-05-09T00:08:15.566Z,5.60
2023-05-09T00:09:15.564Z,6.04
2023-05-09T00:10:15.632Z,5.71
2023-05-09T00:11:15.621Z,5.33
2023-05-09T00:12:15.632Z,5.87
2023-05-09T00:13:15.674Z,5.29
2023-05-09T00:14:15.663Z,5.83
2023-05-09T00:15:15.816Z,5.39
2023-05-09T00:16:15.795Z,5.70
2023-05-09T00:17:15.792Z,5.40
2023-05-09T00:18:15.762Z,6.30
2023-05-09T00:19:15.775Z,5.39
2023-05-09T00:20:15.802Z,5.50
2023-05-09T00:21:15.803Z,5.61
2023-05-09T00:22:15.808Z,5.83
2023-05-09T00:23:15.907Z,5.84
2023-05-09T00:24:15.829Z,6.04
2023-05-09T00:25:16.099Z,5.32
2023-05-09T00:26:15.816Z,6.01
2023-05-09T00:27:15.853Z,5.60
2023-05-09T00:28:15.866Z,5.52
2023-05-09T00:29:15.872Z,5.78
2023-05-09T00:30:15.940Z,5.15
2023-05-09T00:31:15.901Z,5.74
2023-05-09T00:32:15.962Z,5.53
2023-05-09T00:33:15.942Z,5.65
2023-05-09T00:34:15.996Z,6.14
2023-05-09T00:35:16.229Z,5.40
2023-05-09T00:36:15.998Z,5.96
2023-05-09T00:37:16.037Z,6.40
2023-05-09T00:38:16.029Z,6.01
2023-05-09T00:39:16.133Z,6.53
2023-05-09T00:40:16.109Z,5.84
2023-05-09T00:41:16.109Z,6.05
2023-05-09T00:42:16.094Z,5.59
2023-05-09T00:43:16.104Z,5.45
2023-05-09T00:44:16.117Z,5.52
2023-05-09T00:45:16.220Z,5.96
2023-05-09T00:46:16.220Z,5.82
2023-05-09T00:47:16.221Z,6.32
2023-05-09T00:48:16.220Z,6.13
2023-05-09T00:49:16.263Z,6.09
2023-05-09T00:50:16.257Z,5.83
2023-05-09T00:51:16.268Z,5.12
2023-05-09T00:52:16.307Z,5.94
2023-05-09T00:53:16.350Z,5.02
2023-05-09T00:54:16.349Z,5.37
2023-05-09T00:55:16.667Z,5.88
2023-05-09T00:56:16.391Z,5.81
2023-05-09T00:57:16.417Z,5.88
2023-05-09T00:58:16.453Z,5.32
2023-05-09T00:59:17.587Z,6.10
2023-05-09T01:00:16.474Z,6.74
2023-05-09T01:01:16.548Z,6.03
2023-05-09T01:02:16.545Z,5.68
2023-05-09T01:03:16.612Z,5.54
2023-05-09T01:04:16.584Z,5.63
2023-05-09T01:05:16.789Z,5.45
2023-05-09T01:06:16.657Z,5.93
2023-05-09T01:07:16.649Z,5.91
2023-05-09T01:08:16.641Z,5.43
2023-05-09T01:09:16.662Z,5.48
2023-05-09T01:10:16.714Z,6.63
2023-05-09T01:11:16.809Z,6.54
2023-05-09T01:12:16.738Z,5.81
2023-05-09T01:13:16.783Z,6.13
2023-05-09T01:14:16.789Z,6.68
2023-05-09T01:15:16.915Z,6.19
2023-05-09T01:16:16.877Z,6.04
2023-05-09T01:17:16.858Z,5.85
2023-05-09T01:18:16.885Z,5.92
2023-05-09T01:19:16.911Z,5.68
2023-05-09T01:20:16.947Z,6.01
2023-05-09T01:21:16.921Z,6.10
2023-05-09T01:22:16.948Z,6.34
2023-05-09T01:23:16.988Z,6.63
2023-05-09T01:24:16.986Z,5.53
2023-05-09T01:25:17.084Z,5.17
2023-05-09T01:26:17.014Z,6.02
2023-05-09T01:27:17.103Z,5.83
2023-05-09T01:28:17.033Z,5.74
2023-05-09T01:29:17.078Z,5.44
2023-05-09T01:30:17.111Z,5.67
2023-05-09T01:31:17.162Z,4.82
2023-05-09T01:32:17.114Z,5.26
2023-05-09T01:33:17.139Z,6.31
2023-05-09T01:34:17.150Z,6.80
2023-05-09T01:35:17.240Z,5.79
2023-05-09T01:36:17.237Z,6.34
2023-05-09T01:37:17.216Z,6.30
2023-05-09T01:38:17.242Z,5.70
2023-05-09T01:39:17.262Z,5.18
2023-05-09T01:40:17.297Z,6.19
2023-05-09T01:41:17.313Z,5.80
2023-05-09T01:42:17.331Z,6.41
2023-05-09T01:43:17.438Z,5.76
2023-05-09T01:44:17.392Z,6.13
2023-05-09T01:45:17.547Z,5.54
2023-05-09T01:46:17.468Z,5.62
2023-05-09T01:47:17.479Z,5.86
2023-05-09T01:48:17.443Z,6.18
2023-05-09T01:49:17.468Z,5.93
2023-05-09T01:50:17.517Z,5.99
2023-05-09T01:51:17.551Z,5.97
2023-05-09T01:52:17.564Z,6.19
2023-05-09T01:53:17.578Z,5.82
2023-05-09T01:54:17.629Z,6.52
2023-05-09T01:55:17.611Z,6.27
2023-05-09T01:56:17.673Z,5.79
2023-05-09T01:57:17.671Z,5.81
2023-05-09T01:58:17.701Z,6.22
2023-05-09T01:59:17.825Z,5.89
2023-05-09T02:00:17.741Z,6.13
2023-05-09T02:01:17.810Z,5.73
2023-05-09T02:02:17.804Z,6.20
2023-05-09T02:03:17.879Z,6.23
2023-05-09T02:04:17.826Z,6.06
2023-05-09T02:05:17.958Z,6.03
2023-05-09T02:06:17.825Z,5.45
2023-05-09T02:07:17.869Z,6.23
2023-05-09T02:08:17.896Z,5.77
2023-05-09T02:09:17.933Z,5.06
2023-05-09T02:10:17.953Z,6.12
2023-05-09T02:11:17.969Z,5.89
2023-05-09T02:12:17.989Z,6.05
2023-05-09T02:13:18.075Z,6.49
2023-05-09T02:14:17.998Z,6.13
2023-05-09T02:15:18.100Z,6.67
2023-05-09T02:16:19.988Z,6.46
2023-05-09T02:17:18.182Z,6.31
2023-05-09T02:18:18.179Z,6.69
2023-05-09T02:19:18.191Z,5.80
2023-05-09T02:20:18.235Z,6.12
2023-05-09T02:21:18.258Z,6.17
2023-05-09T02:22:18.342Z,6.46
2023-05-09T02:23:18.260Z,6.19
2023-05-09T02:24:18.291Z,5.88
2023-05-09T02:25:18.301Z,6.10
2023-05-09T02:26:18.341Z,5.65
2023-05-09T02:27:18.358Z,5.89
2023-05-09T02:28:18.360Z,5.52
2023-05-09T02:29:18.417Z,6.51
2023-05-09T02:30:18.437Z,6.41
2023-05-09T02:31:18.538Z,7.47
2023-05-09T02:32:18.491Z,6.80
2023-05-09T02:33:18.503Z,6.71
2023-05-09T02:34:18.500Z,6.13
2023-05-09T02:35:18.549Z,6.77
2023-05-09T02:36:18.552Z,6.27
2023-05-09T02:37:18.575Z,6.27
2023-05-09T02:38:18.597Z,5.44
2023-05-09T02:39:18.629Z,6.38
2023-05-09T02:40:18.649Z,5.92
2023-05-09T02:41:18.661Z,5.48
2023-05-09T02:42:18.686Z,6.45
2023-05-09T02:43:18.705Z,5.96
2023-05-09T02:44:18.722Z,5.80
2023-05-09T02:45:18.760Z,6.19
2023-05-09T02:46:18.783Z,5.66
2023-05-09T02:47:18.857Z,6.66
2023-05-09T02:48:18.816Z,6.59
2023-05-09T02:49:31.356Z,6.11
2023-05-09T02:50:19.838Z,6.17
2023-05-09T02:51:18.804Z,5.23
2023-05-09T02:52:18.801Z,6.11
2023-05-09T02:53:18.810Z,7.27
2023-05-09T02:54:18.810Z,6.39
2023-05-09T02:55:18.776Z,6.95
2023-05-09T02:56:18.818Z,5.92
2023-05-09T02:57:18.772Z,6.22
2023-05-09T02:58:18.757Z,6.29
2023-05-09T02:59:19.446Z,6.23
2023-05-09T03:00:18.723Z,6.71
2023-05-09T03:01:18.760Z,6.16
2023-05-09T03:02:18.748Z,6.70
2023-05-09T03:03:18.951Z,6.08
2023-05-09T03:04:18.719Z,5.71
2023-05-09T03:05:18.709Z,6.51
2023-05-09T03:06:18.689Z,5.98
2023-05-09T03:07:18.706Z,6.81
2023-05-09T03:08:18.673Z,5.58
2023-05-09T03:09:18.684Z,6.38
2023-05-09T03:10:18.690Z,5.79
2023-05-09T03:11:18.711Z,6.36
2023-05-09T03:12:18.674Z,6.46
2023-05-09T03:13:18.696Z,6.64
2023-05-09T03:14:18.661Z,6.52
2023-05-09T03:15:18.723Z,5.95
2023-05-09T03:16:18.789Z,5.74
2023-05-09T03:17:18.757Z,6.52
2023-05-09T03:18:18.782Z,6.82
2023-05-09T03:19:18.878Z,6.16
2023-05-09T03:20:18.862Z,6.29
2023-05-09T03:21:18.847Z,6.48
2023-05-09T03:22:18.853Z,6.49
2023-05-09T03:23:18.882Z,6.57
2023-05-09T03:24:18.889Z,5.98
2023-05-09T03:25:18.927Z,5.82
2023-05-09T03:26:18.940Z,5.97
2023-05-09T03:27:18.978Z,6.43
2023-05-09T03:28:18.964Z,6.18
2023-05-09T03:29:18.997Z,6.51
2023-05-09T03:30:19.002Z,6.32
2023-05-09T03:31:19.056Z,6.47
2023-05-09T03:32:19.095Z,5.64
2023-05-09T03:33:19.098Z,5.98
2023-05-09T03:34:19.112Z,5.91
2023-05-09T03:35:19.184Z,6.53
2023-05-09T03:36:19.173Z,6.66
2023-05-09T03:37:19.194Z,6.04
2023-05-09T03:38:19.208Z,6.82
2023-05-09T03:39:19.230Z,6.00
2023-05-09T03:40:19.295Z,6.55
2023-05-09T03:41:19.274Z,6.35
2023-05-09T03:42:19.257Z,6.15
2023-05-09T03:43:19.308Z,6.43
2023-05-09T03:44:19.336Z,6.42
2023-05-09T03:45:19.345Z,6.05
2023-05-09T03:46:19.452Z,6.43
2023-05-09T03:47:19.422Z,6.84
2023-05-09T03:48:19.419Z,6.30
2023-05-09T03:49:19.451Z,6.30
2023-05-09T03:50:19.479Z,6.39
2023-05-09T03:51:19.584Z,5.96
2023-05-09T03:52:19.529Z,5.97
2023-05-09T03:53:19.544Z,6.36
2023-05-09T03:54:19.577Z,5.84
2023-05-09T03:55:19.613Z,6.44
2023-05-09T03:56:19.603Z,6.27
2023-05-09T03:57:19.650Z,6.51
2023-05-09T03:58:19.688Z,6.14
2023-05-09T03:59:19.713Z,6.64
2023-05-09T04:00:19.727Z,6.94
2023-05-09T04:01:19.714Z,6.19
2023-05-09T04:02:19.761Z,6.37
2023-05-09T04:03:19.862Z,5.98
2023-05-09T04:04:19.805Z,6.21
2023-05-09T04:05:19.857Z,5.95
2023-05-09T04:06:19.834Z,6.13
2023-05-09T04:07:19.954Z,6.43
2023-05-09T04:08:19.918Z,6.36
2023-05-09T04:09:19.940Z,6.63
2023-05-09T04:10:19.982Z,6.18
2023-05-09T04:11:19.981Z,5.65
2023-05-09T04:12:19.993Z,6.58
2023-05-09T04:13:20.054Z,7.01
2023-05-09T04:14:20.054Z,6.48
2023-05-09T04:15:20.080Z,5.92
2023-05-09T04:16:20.196Z,6.51
2023-05-09T04:17:20.230Z,6.26
2023-05-09T04:18:20.128Z,6.32
2023-05-09T04:19:20.205Z,6.56
2023-05-09T04:20:20.244Z,6.67
2023-05-09T04:21:20.216Z,6.53
2023-05-09T04:22:20.282Z,6.11
2023-05-09T04:23:20.381Z,6.37
2023-05-09T04:24:20.323Z,6.51
2023-05-09T04:25:20.326Z,6.38
2023-05-09T04:26:20.363Z,6.69
2023-05-09T04:27:20.360Z,6.62
2023-05-09T04:28:20.502Z,6.43
2023-05-09T04:29:20.424Z,6.07
2023-05-09T04:30:20.444Z,6.38
2023-05-09T04:31:20.558Z,6.32
2023-05-09T04:32:20.533Z,6.43
2023-05-09T04:33:20.559Z,6.15
2023-05-09T04:34:20.558Z,6.30
2023-05-09T04:35:21.106Z,6.16
2023-05-09T04:36:20.613Z,6.56
2023-05-09T04:37:20.622Z,6.43
2023-05-09T04:38:20.638Z,6.47
2023-05-09T04:39:20.754Z,7.06
2023-05-09T04:40:20.687Z,6.35
2023-05-09T04:41:20.730Z,6.45
2023-05-09T04:42:20.755Z,6.52
2023-05-09T04:43:20.781Z,6.69
2023-05-09T04:44:20.820Z,6.78
2023-05-09T04:45:20.823Z,6.75
2023-05-09T04:46:21.796Z,6.63
2023-05-09T04:47:20.877Z,6.39
2023-05-09T04:48:20.898Z,6.15
2023-05-09T04:49:20.923Z,7.05
2023-05-09T04:50:20.945Z,6.67
2023-05-09T04:51:20.982Z,6.41
2023-05-09T04:52:21.031Z,7.02
2023-05-09T04:53:21.039Z,6.27
2023-05-09T04:54:21.035Z,6.56
2023-05-09T04:55:21.139Z,6.52
2023-05-09T04:56:21.114Z,6.40
2023-05-09T04:57:21.112Z,6.14
2023-05-09T04:58:21.169Z,6.51
2023-05-09T04:59:21.146Z,7.00
2023-05-09T05:00:21.198Z,6.37
2023-05-09T05:01:21.321Z,5.96
2023-05-09T05:02:21.341Z,6.89
2023-05-09T05:03:21.267Z,6.20
2023-05-09T05:04:21.355Z,7.41
2023-05-09T05:05:24.719Z,6.71
2023-05-09T05:06:21.314Z,6.51
2023-05-09T05:07:21.313Z,6.41
2023-05-09T05:08:21.314Z,7.27
2023-05-09T05:09:21.284Z,7.05
2023-05-09T05:10:21.335Z,6.83
2023-05-09T05:11:21.366Z,7.20
2023-05-09T05:12:21.251Z,6.43
2023-05-09T05:13:21.340Z,6.67
2023-05-09T05:14:21.253Z,6.91
2023-05-09T05:15:21.218Z,6.56
2023-05-09T05:16:21.267Z,6.76
2023-05-09T05:17:21.254Z,6.48
2023-05-09T05:18:21.239Z,7.19
2023-05-09T05:19:21.185Z,6.94
2023-05-09T05:20:21.285Z,6.60
2023-05-09T05:21:21.198Z,6.37
2023-05-09T05:22:21.186Z,6.90
2023-05-09T05:23:21.145Z,6.79
2023-05-09T05:24:21.179Z,6.32
2023-05-09T05:25:21.180Z,6.86
2023-05-09T05:26:21.189Z,7.29
2023-05-09T05:27:21.230Z,4.42
2023-05-09T05:28:21.143Z,4.03
2023-05-09T05:29:21.119Z,6.42
2023-05-09T05:30:21.185Z,4.86
2023-05-09T05:31:21.227Z,4.19
2023-05-09T05:32:21.176Z,5.33
2023-05-09T05:33:21.089Z,7.54
2023-05-09T05:34:21.106Z,7.66
2023-05-09T05:35:21.097Z,9.50
2023-05-09T05:36:21.114Z,9.79
2023-05-09T05:37:21.507Z,7.58
2023-05-09T05:38:21.107Z,9.22
2023-05-09T05:39:21.083Z,11.10
2023-05-09T05:40:21.131Z,11.32
2023-05-09T05:41:21.089Z,12.02
2023-05-09T05:42:21.504Z,8.87
2023-05-09T05:43:21.187Z,9.20
2023-05-09T05:44:21.067Z,7.98
2023-05-09T05:45:21.098Z,9.16
2023-05-09T05:46:28.012Z,11.00
2023-05-09T05:47:21.005Z,8.13
2023-05-09T05:48:21.035Z,10.25
2023-05-09T05:49:21.008Z,8.65
2023-05-09T05:50:21.001Z,8.16
2023-05-09T05:51:20.985Z,9.50
2023-05-09T05:52:20.994Z,8.63
2023-05-09T05:53:21.001Z,8.82
2023-05-09T05:54:20.995Z,10.99
2023-05-09T05:55:21.032Z,11.33
2023-05-09T05:56:20.970Z,10.33
2023-05-09T05:57:20.972Z,9.48
2023-05-09T05:58:20.955Z,9.58
2023-05-09T05:59:21.085Z,9.20
2023-05-09T06:00:20.928Z,9.11
2023-05-09T06:01:20.953Z,11.47
2023-05-09T06:02:20.982Z,10.08
2023-05-09T06:03:21.021Z,9.50
2023-05-09T06:04:21.010Z,10.02
2023-05-09T06:05:20.922Z,9.71
2023-05-09T06:06:21.038Z,11.11
2023-05-09T06:07:21.070Z,10.82
2023-05-09T06:08:20.883Z,10.80
2023-05-09T06:09:20.899Z,10.77
2023-05-09T06:10:20.926Z,10.38
2023-05-09T06:11:20.865Z,10.77
2023-05-09T06:12:20.840Z,11.01
2023-05-09T06:13:21.000Z,10.90
2023-05-09T06:14:20.832Z,10.29
2023-05-09T06:15:20.913Z,10.32
2023-05-09T06:16:20.876Z,10.23
2023-05-09T06:17:20.902Z,10.10
2023-05-09T06:18:20.827Z,10.41
2023-05-09T06:19:20.792Z,10.88
2023-05-09T06:20:20.762Z,10.72
2023-05-09T06:21:20.779Z,10.92
2023-05-09T06:22:20.787Z,10.73
2023-05-09T06:23:20.795Z,10.73
2023-05-09T06:24:34.547Z,10.59
2023-05-09T06:25:21.786Z,11.85
2023-05-09T06:26:20.926Z,11.17
2023-05-09T06:27:21.094Z,11.97
2023-05-09T06:28:20.777Z,10.48
2023-05-09T06:29:20.781Z,11.64
2023-05-09T06:31:21.862Z,10.48
2023-05-09T06:32:20.750Z,12.31
2023-05-09T06:33:20.756Z,10.59
2023-05-09T06:34:20.714Z,11.03
2023-05-09T06:35:20.691Z,10.53
2023-05-09T06:36:20.719Z,10.12
2023-05-09T06:37:20.740Z,11.13
2023-05-09T06:38:20.690Z,10.57
2023-05-09T06:39:20.691Z,12.07
2023-05-09T06:40:20.651Z,12.07
2023-05-09T06:41:20.668Z,11.26
2023-05-09T06:42:20.680Z,10.38
2023-05-09T06:43:20.658Z,9.80
2023-05-09T06:44:20.697Z,9.98
2023-05-09T06:45:20.778Z,11.33
2023-05-09T06:46:20.720Z,11.68
2023-05-09T06:47:20.648Z,10.35
2023-05-09T06:48:21.597Z,10.69
2023-05-09T06:49:20.613Z,10.86
2023-05-09T06:50:20.632Z,10.27
2023-05-09T06:51:20.629Z,10.12
2023-05-09T06:52:20.571Z,10.37
2023-05-09T06:53:20.593Z,10.58
2023-05-09T06:54:20.629Z,10.65
2023-05-09T06:55:20.554Z,10.07
2023-05-09T06:56:20.580Z,11.00
2023-05-09T06:57:20.524Z,10.17
2023-05-09T06:58:20.541Z,9.60
2023-05-09T06:59:20.534Z,9.95
2023-05-09T07:00:20.568Z,10.11
2023-05-09T07:01:20.570Z,10.04
2023-05-09T07:02:20.555Z,10.53
2023-05-09T07:03:20.573Z,9.48
2023-05-09T07:04:20.472Z,9.89
2023-05-09T07:05:20.550Z,9.63
2023-05-09T07:06:20.491Z,10.07
2023-05-09T07:07:20.464Z,9.33
2023-05-09T07:08:20.597Z,10.61
2023-05-09T07:09:20.509Z,9.91
2023-05-09T07:10:20.457Z,10.20
2023-05-09T07:11:20.477Z,10.98
2023-05-09T07:12:20.445Z,10.38
2023-05-09T07:13:20.763Z,10.43
2023-05-09T07:14:20.439Z,9.08
2023-05-09T07:15:29.100Z,10.53
2023-05-09T07:16:21.455Z,10.13
2023-05-09T07:17:23.684Z,9.18
2023-05-09T07:18:20.415Z,9.56
2023-05-09T07:19:20.481Z,9.63
2023-05-09T07:20:20.371Z,10.16
2023-05-09T07:21:20.379Z,10.10
2023-05-09T07:22:20.412Z,10.56
2023-05-09T07:23:20.387Z,9.51
2023-05-09T07:24:20.346Z,9.41
2023-05-09T07:25:20.366Z,9.91
2023-05-09T07:26:20.321Z,9.61
2023-05-09T07:27:20.448Z,9.61
2023-05-09T07:28:20.624Z,9.84
2023-05-09T07:29:20.326Z,9.97
2023-05-09T07:30:20.361Z,9.02
2023-05-09T07:31:20.365Z,9.22
2023-05-09T07:32:20.308Z,10.28
2023-05-09T07:33:20.341Z,13.21
2023-05-09T07:34:20.312Z,12.59
2023-05-09T07:35:20.341Z,12.45
2023-05-09T07:36:20.332Z,12.10
2023-05-09T07:37:20.290Z,9.75
2023-05-09T07:38:20.284Z,11.29
2023-05-09T07:39:20.261Z,11.45
2023-05-09T07:40:20.256Z,11.70
2023-05-09T07:41:20.247Z,10.13
2023-05-09T07:42:20.254Z,11.21
2023-05-09T07:43:20.587Z,10.85
2023-05-09T07:44:20.233Z,10.72
2023-05-09T07:45:22.091Z,11.42
2023-05-09T07:46:20.315Z,11.56
2023-05-09T07:47:20.217Z,9.78
2023-05-09T07:48:20.226Z,9.73
2023-05-09T07:49:20.209Z,10.71
2023-05-09T07:50:20.197Z,11.86
2023-05-09T07:51:20.254Z,12.59
2023-05-09T07:52:20.179Z,11.69
2023-05-09T07:53:20.150Z,11.29
2023-05-09T07:54:20.151Z,11.95
2023-05-09T07:55:20.133Z,11.85
2023-05-09T07:56:20.098Z,10.91
2023-05-09T07:57:20.125Z,10.10
2023-05-09T07:58:20.120Z,10.61
2023-05-09T07:59:20.602Z,10.67
2023-05-09T08:00:20.123Z,10.37
2023-05-09T08:01:20.072Z,10.48
2023-05-09T08:02:20.095Z,10.08
2023-05-09T08:03:20.168Z,8.65
2023-05-09T08:04:20.127Z,8.77
2023-05-09T08:05:20.057Z,9.87
2023-05-09T08:06:20.079Z,9.72
2023-05-09T08:07:20.141Z,10.89
2023-05-09T08:08:20.056Z,12.53
2023-05-09T08:09:20.031Z,10.85
2023-05-09T08:10:20.031Z,11.01
2023-05-09T08:11:20.046Z,8.84
2023-05-09T08:12:20.023Z,8.29
2023-05-09T08:13:20.051Z,8.92
2023-05-09T08:14:19.982Z,9.89
2023-05-09T08:15:19.984Z,8.78
2023-05-09T08:16:20.017Z,9.39
2023-05-09T08:17:20.045Z,8.56
2023-05-09T08:18:20.034Z,9.84
2023-05-09T08:19:20.097Z,8.51
2023-05-09T08:20:19.969Z,9.01
2023-05-09T08:21:22.146Z,8.71
2023-05-09T08:22:19.946Z,8.97
2023-05-09T08:23:20.035Z,8.40
2023-05-09T08:24:20.102Z,7.78
2023-05-09T08:25:20.035Z,8.67
2023-05-09T08:26:19.927Z,7.98
2023-05-09T08:27:19.973Z,7.96
2023-05-09T08:28:22.520Z,7.07
2023-05-09T08:29:20.166Z,7.02
2023-05-09T08:30:20.163Z,7.13
2023-05-09T08:31:20.206Z,6.99
2023-05-09T08:32:20.254Z,7.37
2023-05-09T08:33:20.267Z,7.26
2023-05-09T08:34:20.629Z,7.48
2023-05-09T08:35:20.338Z,7.47
2023-05-09T08:36:20.440Z,7.21
2023-05-09T08:37:20.404Z,7.75
2023-05-09T08:38:20.509Z,6.59
2023-05-09T08:39:20.562Z,7.27
2023-05-09T08:40:20.488Z,6.81
2023-05-09T08:41:20.529Z,6.90
2023-05-09T08:42:20.582Z,5.95
2023-05-09T08:43:20.585Z,6.92
2023-05-09T08:44:20.610Z,6.99
2023-05-09T08:45:20.634Z,6.22
2023-05-09T08:46:20.794Z,7.03
2023-05-09T08:47:20.759Z,7.35
2023-05-09T08:48:20.754Z,6.70
2023-05-09T08:49:20.760Z,6.74
2023-05-09T08:50:20.879Z,5.64
2023-05-09T08:51:20.871Z,6.78
2023-05-09T08:52:20.906Z,6.67
2023-05-09T08:53:20.931Z,7.21
2023-05-09T08:54:22.860Z,6.53
2023-05-09T08:55:21.148Z,7.01
2023-05-09T08:56:21.040Z,6.47
2023-05-09T08:57:21.076Z,6.97
2023-05-09T08:58:21.144Z,6.84
2023-05-09T08:59:21.163Z,6.74
2023-05-09T09:00:21.470Z,7.09
2023-05-09T09:01:21.238Z,6.47
2023-05-09T09:02:21.267Z,7.05
2023-05-09T09:03:21.281Z,7.72
2023-05-09T09:04:21.664Z,6.53
2023-05-09T09:05:40.145Z,7.29
2023-05-09T09:06:22.339Z,7.51
2023-05-09T09:07:21.348Z,6.65
2023-05-09T09:08:21.348Z,6.79
2023-05-09T09:09:21.736Z,7.00
2023-05-09T09:10:21.327Z,6.78
2023-05-09T09:11:21.395Z,7.90
2023-05-09T09:12:21.317Z,6.90
2023-05-09T09:13:21.306Z,5.99
2023-05-09T09:14:21.294Z,7.03
2023-05-09T09:15:21.290Z,5.75
2023-05-09T09:16:21.313Z,6.43
2023-05-09T09:17:21.261Z,6.40
2023-05-09T09:18:21.279Z,6.51
2023-05-09T09:19:21.344Z,6.11
2023-05-09T09:20:21.256Z,6.35
2023-05-09T09:21:21.315Z,6.20
2023-05-09T09:22:21.464Z,5.63
2023-05-09T09:23:21.212Z,6.67
2023-05-09T09:24:21.211Z,5.88
2023-05-09T09:25:21.417Z,6.47
2023-05-09T09:26:21.200Z,5.65
2023-05-09T09:27:21.274Z,5.60
2023-05-09T09:28:21.200Z,5.61
2023-05-09T09:29:21.190Z,5.23
2023-05-09T09:30:21.208Z,5.16
2023-05-09T09:31:21.284Z,6.96
2023-05-09T09:32:21.251Z,5.38
2023-05-09T09:33:21.181Z,5.22
2023-05-09T09:34:21.141Z,5.18
2023-05-09T09:35:21.185Z,5.80
2023-05-09T09:36:21.124Z,5.19
2023-05-09T09:37:21.137Z,4.92
2023-05-09T09:38:21.149Z,5.42
2023-05-09T09:39:21.118Z,4.99
2023-05-09T09:40:21.086Z,4.20
2023-05-09T09:41:21.127Z,4.87
2023-05-09T09:42:21.088Z,5.64
2023-05-09T09:43:21.199Z,4.84
2023-05-09T09:44:21.160Z,6.02
2023-05-09T09:45:21.285Z,4.06
2023-05-09T09:46:21.259Z,3.97
2023-05-09T09:47:21.307Z,4.27
2023-05-09T09:48:21.327Z,4.06
2023-05-09T09:49:21.341Z,4.33
2023-05-09T09:50:21.709Z,4.38
2023-05-09T09:51:21.460Z,4.28
2023-05-09T09:52:21.530Z,3.70
2023-05-09T09:53:21.490Z,4.00
2023-05-09T09:54:21.587Z,4.58
2023-05-09T09:55:21.588Z,3.80
2023-05-09T09:56:21.600Z,4.16
2023-05-09T09:57:21.617Z,3.89
2023-05-09T09:58:21.652Z,3.57
2023-05-09T09:59:21.778Z,3.01
2023-05-09T10:00:21.708Z,3.68
2023-05-09T10:01:21.747Z,3.56
2023-05-09T10:02:21.795Z,3.71
2023-05-09T10:03:21.832Z,3.97
2023-05-09T10:04:22.678Z,4.03
2023-05-09T10:05:21.836Z,3.73
2023-05-09T10:06:21.823Z,4.16
2023-05-09T10:07:21.924Z,3.62
2023-05-09T10:08:21.897Z,4.32
2023-05-09T10:09:21.941Z,3.32
2023-05-09T10:10:22.004Z,2.82
2023-05-09T10:11:22.022Z,3.82
2023-05-09T10:12:22.063Z,3.64
2023-05-09T10:13:22.117Z,3.06
2023-05-09T10:14:22.203Z,3.29
2023-05-09T10:15:22.156Z,2.95
2023-05-09T10:16:35.533Z,2.50
2023-05-09T10:17:23.442Z,2.83
2023-05-09T10:18:22.301Z,3.27
2023-05-09T10:19:22.168Z,3.10
2023-05-09T10:20:22.144Z,2.76
2023-05-09T10:21:22.224Z,3.71
2023-05-09T10:22:22.179Z,3.36
2023-05-09T10:23:22.124Z,3.34
2023-05-09T10:24:22.127Z,3.26
2023-05-09T10:25:22.118Z,2.99
2023-05-09T10:26:22.086Z,3.01
2023-05-09T10:27:22.131Z,2.91
2023-05-09T10:28:22.083Z,3.32
2023-05-09T10:29:22.072Z,2.96
2023-05-09T10:30:22.218Z,2.76
2023-05-09T10:31:22.177Z,2.70
2023-05-09T10:32:22.033Z,2.85
2023-05-09T10:33:22.065Z,2.99
2023-05-09T10:34:22.036Z,2.79
2023-05-09T10:35:22.165Z,3.08
2023-05-09T10:36:22.021Z,3.22
2023-05-09T10:37:22.073Z,2.72
2023-05-09T10:38:22.101Z,3.00
2023-05-09T10:39:22.186Z,3.33
2023-05-09T10:40:22.683Z,3.10
2023-05-09T10:41:22.334Z,2.59
2023-05-09T10:42:22.396Z,3.04
2023-05-09T10:43:22.404Z,2.86
2023-05-09T10:44:22.511Z,3.17
2023-05-09T10:45:22.562Z,2.84
2023-05-09T10:46:22.623Z,3.12
2023-05-09T10:47:22.755Z,2.85
2023-05-09T10:48:22.672Z,3.29
2023-05-09T10:49:22.747Z,4.03
2023-05-09T10:50:23.205Z,3.45
2023-05-09T10:51:22.860Z,3.22
2023-05-09T10:52:22.921Z,3.16
2023-05-09T10:53:22.897Z,3.76
2023-05-09T10:54:22.937Z,3.05
2023-05-09T10:55:22.987Z,3.07
2023-05-09T10:56:23.024Z,3.09
2023-05-09T10:57:23.106Z,2.89
2023-05-09T10:58:23.131Z,2.98
2023-05-09T10:59:23.179Z,2.74
2023-05-09T11:00:23.227Z,2.68
2023-05-09T11:01:23.288Z,2.35
2023-05-09T11:02:23.348Z,2.48
2023-05-09T11:03:23.531Z,2.15
2023-05-09T11:04:23.462Z,2.52
2023-05-09T11:05:23.545Z,2.75
2023-05-09T11:06:23.526Z,2.89
2023-05-09T11:07:23.598Z,3.07
2023-05-09T11:08:23.652Z,2.73
2023-05-09T11:09:23.635Z,2.65
2023-05-09T11:10:23.646Z,2.58
2023-05-09T11:11:23.726Z,2.35
2023-05-09T11:12:23.731Z,2.63
2023-05-09T11:13:23.810Z,2.18
2023-05-09T11:14:23.890Z,2.17
2023-05-09T11:15:23.870Z,1.85
2023-05-09T11:16:23.927Z,2.13
2023-05-09T11:17:23.918Z,2.09
2023-05-09T11:18:23.898Z,1.95
2023-05-09T11:19:23.998Z,1.88
2023-05-09T11:20:23.956Z,1.84
2023-05-09T11:21:23.959Z,1.62
2023-05-09T11:22:24.019Z,1.58
2023-05-09T11:23:23.972Z,1.77
2023-05-09T11:24:24.024Z,1.78
2023-05-09T11:25:25.035Z,1.53
2023-05-09T11:26:24.030Z,1.30
2023-05-09T11:27:24.075Z,1.80
2023-05-09T11:28:24.056Z,1.53
2023-05-09T11:29:24.101Z,1.94
2023-05-09T11:30:24.183Z,1.68
2023-05-09T11:31:24.859Z,1.86
2023-05-09T11:32:24.305Z,1.72
2023-05-09T11:33:24.401Z,1.78
2023-05-09T11:34:24.404Z,1.79
2023-05-09T11:35:24.477Z,1.48
2023-05-09T11:36:24.699Z,1.90
2023-05-09T11:37:24.462Z,1.80
2023-05-09T11:38:24.539Z,1.53
2023-05-09T11:39:24.494Z,1.71
2023-05-09T11:40:24.537Z,1.75
2023-05-09T11:41:24.764Z,1.93
2023-05-09T11:42:24.590Z,2.57
2023-05-09T11:43:24.605Z,1.82
2023-05-09T11:44:24.625Z,1.65
2023-05-09T11:45:24.624Z,1.93
2023-05-09T11:46:24.706Z,1.75
2023-05-09T11:47:24.680Z,2.05
2023-05-09T11:48:24.642Z,1.82
2023-05-09T11:49:24.712Z,1.79
2023-05-09T11:50:24.697Z,2.04
2023-05-09T11:51:24.783Z,1.98
2023-05-09T11:52:24.732Z,1.71
2023-05-09T11:53:24.709Z,1.88
2023-05-09T11:54:24.743Z,1.51
2023-05-09T11:55:24.717Z,1.58
2023-05-09T11:56:25.209Z,2.02
2023-05-09T11:57:24.713Z,1.85
2023-05-09T11:58:24.699Z,1.84
2023-05-09T11:59:24.713Z,2.13
2023-05-09T12:00:24.717Z,1.95
2023-05-09T12:01:24.741Z,1.75
2023-05-09T12:02:24.792Z,1.54
2023-05-09T12:03:24.919Z,2.04
2023-05-09T12:04:24.853Z,1.96
2023-05-09T12:05:24.744Z,2.06
2023-05-09T12:06:24.757Z,1.66
2023-05-09T12:07:24.854Z,1.95
2023-05-09T12:08:24.769Z,2.04
2023-05-09T12:09:24.762Z,1.52
2023-05-09T12:10:24.763Z,1.81
2023-05-09T12:11:24.785Z,1.90
2023-05-09T12:12:24.755Z,1.63
2023-05-09T12:13:24.808Z,1.62
2023-05-09T12:14:24.753Z,1.40
2023-05-09T12:15:24.758Z,1.49
2023-05-09T12:16:24.810Z,1.70
2023-05-09T12:17:24.767Z,1.41
2023-05-09T12:18:24.736Z,1.42
2023-05-09T12:19:24.728Z,1.18
2023-05-09T12:20:24.724Z,1.83
2023-05-09T12:21:24.717Z,1.49
2023-05-09T12:22:24.746Z,1.46
2023-05-09T12:23:24.817Z,1.22
2023-05-09T12:24:24.715Z,1.42
2023-05-09T12:25:24.743Z,1.15
2023-05-09T12:26:24.771Z,1.83
2023-05-09T12:27:24.733Z,1.55
2023-05-09T12:28:24.734Z,1.63
2023-05-09T12:29:24.756Z,1.47
2023-05-09T12:30:24.749Z,1.50
2023-05-09T12:31:24.765Z,1.67
2023-05-09T12:32:24.738Z,1.37
2023-05-09T12:33:24.727Z,1.61
2023-05-09T12:34:24.710Z,1.71
2023-05-09T12:35:24.720Z,1.55
2023-05-09T12:36:24.716Z,1.67
2023-05-09T12:37:24.700Z,1.65
2023-05-09T12:38:24.737Z,1.85
2023-05-09T12:39:24.808Z,1.64
2023-05-09T12:40:24.773Z,1.56
2023-05-09T12:42:24.783Z,1.71
2023-05-09T12:43:24.781Z,1.97
2023-05-09T12:44:24.720Z,1.64
2023-05-09T12:45:24.770Z,2.15
2023-05-09T12:46:24.814Z,1.59
2023-05-09T12:47:24.764Z,1.50
2023-05-09T12:48:24.743Z,1.71
2023-05-09T12:49:24.728Z,1.86
2023-05-09T12:50:24.720Z,1.86
2023-05-09T12:51:24.741Z,1.72
2023-05-09T12:52:24.692Z,1.74
2023-05-09T12:53:24.710Z,2.01
2023-05-09T12:54:24.675Z,1.38
2023-05-09T12:55:24.740Z,1.88
2023-05-09T12:56:24.697Z,1.76
2023-05-09T12:57:24.659Z,1.72
2023-05-09T12:58:24.636Z,1.72
2023-05-09T12:59:24.645Z,1.76
2023-05-09T13:00:24.650Z,1.53
2023-05-09T13:01:24.798Z,1.58
2023-05-09T13:02:24.642Z,1.35
2023-05-09T13:03:24.703Z,0.99
2023-05-09T13:04:24.587Z,1.27
2023-05-09T13:05:24.660Z,1.28
2023-05-09T13:06:24.596Z,1.48
2023-05-09T13:07:24.591Z,1.09
2023-05-09T13:08:24.554Z,1.27
2023-05-09T13:09:24.542Z,1.27
2023-05-09T13:10:24.567Z,1.49
2023-05-09T13:11:24.544Z,1.41
2023-05-09T13:12:24.541Z,1.14
2023-05-09T13:13:24.563Z,1.15
2023-05-09T13:14:24.520Z,1.19
2023-05-09T13:15:24.525Z,1.53
2023-05-09T13:16:24.534Z,1.70